createdAt,value
2019-05-11T00:01:27.204Z,23.0
2019-05-11T00:11:26.349Z,20.7
2019-05-11T00:21:26.192Z,21.2
2019-05-11T00:31:25.824Z,19.8
2019-05-11T00:41:26.729Z,19.2
2019-05-11T00:51:26.874Z,19.1
2019-05-11T01:01:26.910Z,18.0
2019-05-11T01:11:28.112Z,17.0
2019-05-11T01:21:26.097Z,15.2
2019-05-11T01:31:26.236Z,16.0
2019-05-11T01:41:25.655Z,14.9
2019-05-11T01:51:26.901Z,13.4
2019-05-11T02:01:26.381Z,14.4
2019-05-11T02:11:25.862Z,13.9
2019-05-11T02:21:27.083Z,15.1
2019-05-11T02:31:27.085Z,15.2
2019-05-11T02:41:35.953Z,13.7
2019-05-11T02:51:26.695Z,13.4
2019-05-11T03:01:26.290Z,13.3
2019-05-11T03:11:25.963Z,13.7
2019-05-11T03:21:25.870Z,13.1
2019-05-11T03:31:26.352Z,13.4
2019-05-11T03:41:26.212Z,13.5
2019-05-11T03:51:29.833Z,12.2
2019-05-11T04:01:26.663Z,13.4
2019-05-11T04:11:26.315Z,12.4
2019-05-11T04:21:26.400Z,11.5
2019-05-11T04:31:26.183Z,12.5
2019-05-11T04:41:26.631Z,11.5
2019-05-11T04:51:26.798Z,12.7
2019-05-11T05:01:25.337Z,11.6
2019-05-11T05:11:25.224Z,12.4
2019-05-11T05:21:27.182Z,12.1
2019-05-11T05:31:25.699Z,11.9
2019-05-11T05:41:27.295Z,12.0
2019-05-11T05:51:26.743Z,9.1
2019-05-11T06:01:26.920Z,7.2
2019-05-11T06:11:26.030Z,7.7
2019-05-11T06:21:26.474Z,7.4
2019-05-11T06:31:26.295Z,6.5
2019-05-11T06:41:24.893Z,7.6
2019-05-11T06:51:26.738Z,8.0
2019-05-11T07:01:27.445Z,7.6
2019-05-11T07:11:26.419Z,7.0
2019-05-11T07:21:27.417Z,7.7
2019-05-11T07:31:26.213Z,6.9
2019-05-11T07:41:28.311Z,4.9
2019-05-11T07:51:28.683Z,4.5
2019-05-11T08:01:28.110Z,4.9
2019-05-11T08:11:28.757Z,6.1
2019-05-11T08:21:28.317Z,3.7
2019-05-11T08:31:27.860Z,4.1
2019-05-11T08:41:28.036Z,3.0
2019-05-11T08:51:27.709Z,3.0
2019-05-11T09:01:28.649Z,2.3
2019-05-11T09:11:28.091Z,1.7
2019-05-11T09:21:27.539Z,1.9
2019-05-11T09:31:27.908Z,2.1
2019-05-11T09:41:26.044Z,2.1
2019-05-11T09:51:28.479Z,2.2
2019-05-11T10:01:29.338Z,2.4
2019-05-11T10:11:25.335Z,2.0
2019-05-11T10:21:29.745Z,1.8
2019-05-11T10:31:24.862Z,2.0
2019-05-11T10:41:24.924Z,1.8
2019-05-11T10:51:25.415Z,1.6
2019-05-11T11:01:28.302Z,1.3
2019-05-11T11:11:27.734Z,1.3
2019-05-11T11:21:27.841Z,1.5
2019-05-11T11:31:28.489Z,1.3
2019-05-11T11:41:25.914Z,1.2
2019-05-11T11:51:25.510Z,1.5
2019-05-11T12:01:28.040Z,1.3
2019-05-11T12:11:27.893Z,1.3
2019-05-11T12:21:24.881Z,1.5
2019-05-11T12:31:29.576Z,1.4
2019-05-11T12:41:25.118Z,1.1
2019-05-11T12:51:27.639Z,0.9
2019-05-11T13:01:24.796Z,0.9
2019-05-11T13:11:25.941Z,1.2
2019-05-11T13:21:28.624Z,1.2
2019-05-11T13:31:27.672Z,1.6
2019-05-11T13:41:27.487Z,0.9
2019-05-11T13:51:25.692Z,1.2
2019-05-11T14:01:27.703Z,1.1
2019-05-11T14:11:25.594Z,1.2
2019-05-11T14:21:25.021Z,1.2
2019-05-11T14:31:27.881Z,1.0
2019-05-11T14:41:25.164Z,1.3
2019-05-11T14:51:28.078Z,1.3
2019-05-11T15:01:25.354Z,1.3
2019-05-11T15:11:27.716Z,1.2
2019-05-11T15:21:24.934Z,1.2
2019-05-11T15:31:27.689Z,1.4
2019-05-11T15:41:27.970Z,1.5
2019-05-11T15:51:26.169Z,1.5
2019-05-11T16:01:28.748Z,1.6
2019-05-11T16:11:28.333Z,1.4
2019-05-11T16:21:28.434Z,1.8
2019-05-11T16:31:25.252Z,1.9
2019-05-11T16:41:25.366Z,1.7
2019-05-11T16:51:28.221Z,1.9
2019-05-11T17:01:25.135Z,2.3
2019-05-11T17:11:26.119Z,4.7
2019-05-11T17:21:29.103Z,2.4
2019-05-11T17:31:25.879Z,3.0
2019-05-11T17:41:27.904Z,2.7
2019-05-11T17:51:25.760Z,2.4
2019-05-11T18:01:24.832Z,3.0
2019-05-11T18:11:29.889Z,3.3
2019-05-11T18:21:27.497Z,2.8
2019-05-11T18:31:24.993Z,4.1
2019-05-11T18:41:25.035Z,5.1
2019-05-11T18:51:25.334Z,6.2
2019-05-11T19:01:25.277Z,5.2
2019-05-11T19:11:25.618Z,5.9
2019-05-11T19:21:27.476Z,5.9
2019-05-11T19:31:28.022Z,5.6
2019-05-11T19:41:27.771Z,8.4
2019-05-11T19:51:28.881Z,7.2
2019-05-11T20:01:24.793Z,6.0
2019-05-11T20:11:27.733Z,4.7
2019-05-11T20:21:25.617Z,4.5
2019-05-11T20:31:27.581Z,5.1
2019-05-11T20:41:27.922Z,6.2
2019-05-11T20:51:33.893Z,6.9
2019-05-11T21:01:28.523Z,7.3
2019-05-11T21:11:27.354Z,9.5
2019-05-11T21:21:27.839Z,11.6
2019-05-11T21:31:28.950Z,14.7
2019-05-11T21:41:28.179Z,15.5
2019-05-11T21:51:29.243Z,16.5
2019-05-11T22:01:28.040Z,14.1
2019-05-11T22:11:28.433Z,12.2
2019-05-11T22:21:27.968Z,11.0
2019-05-11T22:31:27.986Z,12.3
2019-05-11T22:41:25.260Z,12.8
2019-05-11T22:51:25.909Z,11.6
2019-05-11T23:01:28.223Z,10.5
2019-05-11T23:11:25.189Z,11.2
2019-05-11T23:21:29.815Z,10.9
2019-05-11T23:31:27.794Z,10.4
2019-05-11T23:41:28.737Z,10.6
2019-05-11T23:51:25.566Z,10.3
